DAN161 EGPD-EGKK
Flight info
| Callsign | DAN161 |
|---|---|
| Flight time | 1h 24m |
| Altitude | 24000 |
| Route | GLESK P600 FENIK/N0443F250 L612 DCS N864 EGTOC/N0463F310 DCT KEPAD L151 DISIT |
| Aircraft | B722/M-SDFGHRWY/C |
Departure
| Time | 2026-05-07 14:56 |
|---|---|
| Airport | Aberdeen International Airport (EGPD) |
Arrival
| Time | 2026-05-07 16:20 |
|---|---|
| Airport | London Gatwick Airport (EGKK) |
| Time | Latitude | Longitude | Altitude | Speed | Heading |
|---|---|---|---|---|---|
| 2026-05-07 14:52 | 57.20572 | -2.20389 | 250 ft | 13 kts | 342° |
| 2026-05-07 14:53 | 57.20666 | -2.20454 | 250 ft | 14 kts | 336° |
| 2026-05-07 14:53 | 57.20757 | -2.20523 | 250 ft | 15 kts | 338° |
| 2026-05-07 14:53 | 57.20869 | -2.20606 | 250 ft | 19 kts | 338° |
| 2026-05-07 14:53 | 57.20935 | -2.20653 | 250 ft | 5 kts | 340° |
| 2026-05-07 14:54 | 57.20973 | -2.20669 | 250 ft | 3 kts | 15° |
| 2026-05-07 14:54 | 57.21000 | -2.20618 | 250 ft | 8 kts | 58° |
| 2026-05-07 14:54 | 57.21006 | -2.20598 | 250 ft | 5 kts | 65° |
| 2026-05-07 14:54 | 57.21032 | -2.20484 | 251 ft | 14 kts | 69° |
| 2026-05-07 14:55 | 57.21011 | -2.20384 | 251 ft | 0 kts | 153° |
| 2026-05-07 14:55 | 57.21006 | -2.20380 | 251 ft | 6 kts | 155° |
| 2026-05-07 14:55 | 57.20891 | -2.20297 | 249 ft | 40 kts | 159° |
| 2026-05-07 14:56 | 57.20405 | -2.19936 | 253 ft | 108 kts | 159° |
| 2026-05-07 14:56 | 57.19554 | -2.19304 | 492 ft | 146 kts | 159° |
| 2026-05-07 14:56 | 57.18622 | -2.18571 | 1197 ft | 152 kts | 160° |
| 2026-05-07 14:56 | 57.17592 | -2.17785 | 1780 ft | 170 kts | 169° |
| 2026-05-07 14:57 | 57.16425 | -2.17795 | 2558 ft | 170 kts | 198° |
| 2026-05-07 14:57 | 57.15376 | -2.18805 | 3419 ft | 171 kts | 213° |
| 2026-05-07 14:57 | 57.14479 | -2.20278 | 4287 ft | 176 kts | 227° |
| 2026-05-07 14:57 | 57.13747 | -2.22114 | 5107 ft | 179 kts | 231° |
| 2026-05-07 14:58 | 57.12978 | -2.23937 | 5899 ft | 181 kts | 227° |
| 2026-05-07 14:58 | 57.12165 | -2.25720 | 6686 ft | 183 kts | 230° |
| 2026-05-07 14:58 | 57.11400 | -2.27586 | 7452 ft | 182 kts | 232° |
| 2026-05-07 14:58 | 57.10645 | -2.29450 | 8238 ft | 181 kts | 233° |
| 2026-05-07 14:59 | 57.09898 | -2.31313 | 8950 ft | 181 kts | 232° |
| 2026-05-07 14:59 | 57.09126 | -2.33203 | 9508 ft | 191 kts | 233° |
| 2026-05-07 14:59 | 57.08345 | -2.35132 | 10514 ft | 186 kts | 233° |
| 2026-05-07 14:59 | 57.07566 | -2.37059 | 11398 ft | 189 kts | 232° |
| 2026-05-07 15:00 | 57.06775 | -2.39020 | 12279 ft | 192 kts | 232° |
| 2026-05-07 15:00 | 57.05960 | -2.41034 | 13001 ft | 206 kts | 232° |
| 2026-05-07 15:00 | 57.05097 | -2.43161 | 13416 ft | 207 kts | 232° |
| 2026-05-07 15:00 | 57.04245 | -2.45257 | 13807 ft | 209 kts | 232° |
| 2026-05-07 15:01 | 57.03372 | -2.47393 | 14179 ft | 210 kts | 232° |
| 2026-05-07 15:01 | 57.02488 | -2.49540 | 14544 ft | 211 kts | 231° |
| 2026-05-07 15:01 | 57.01589 | -2.51689 | 14911 ft | 213 kts | 231° |
| 2026-05-07 15:01 | 57.00682 | -2.53854 | 15271 ft | 215 kts | 231° |
| 2026-05-07 15:02 | 56.99771 | -2.56033 | 15664 ft | 218 kts | 231° |
| 2026-05-07 15:02 | 56.98809 | -2.58335 | 16088 ft | 237 kts | 231° |
| 2026-05-07 15:02 | 56.97775 | -2.60805 | 16531 ft | 246 kts | 231° |
| 2026-05-07 15:02 | 56.96732 | -2.63308 | 16959 ft | 247 kts | 231° |
| 2026-05-07 15:03 | 56.95689 | -2.65828 | 17373 ft | 249 kts | 231° |
| 2026-05-07 15:03 | 56.94639 | -2.68372 | 17777 ft | 251 kts | 231° |
| 2026-05-07 15:03 | 56.93586 | -2.70937 | 18180 ft | 254 kts | 231° |
| 2026-05-07 15:03 | 56.92526 | -2.73524 | 18514 ft | 254 kts | 231° |
| 2026-05-07 15:04 | 56.91466 | -2.76123 | 18832 ft | 255 kts | 232° |
| 2026-05-07 15:04 | 56.90399 | -2.78716 | 19171 ft | 255 kts | 226° |
| 2026-05-07 15:04 | 56.89087 | -2.80894 | 19535 ft | 255 kts | 216° |
| 2026-05-07 15:04 | 56.87606 | -2.82678 | 19911 ft | 256 kts | 214° |
| 2026-05-07 15:05 | 56.86167 | -2.84599 | 20296 ft | 257 kts | 218° |
| 2026-05-07 15:05 | 56.84712 | -2.86510 | 20678 ft | 258 kts | 212° |
| 2026-05-07 15:05 | 56.83225 | -2.88356 | 21072 ft | 259 kts | 217° |
| 2026-05-07 15:05 | 56.81806 | -2.90396 | 21475 ft | 260 kts | 215° |
| 2026-05-07 15:06 | 56.80277 | -2.92184 | 21878 ft | 262 kts | 214° |
| 2026-05-07 15:06 | 56.78814 | -2.94173 | 22282 ft | 262 kts | 219° |
| 2026-05-07 15:06 | 56.77349 | -2.96150 | 22699 ft | 263 kts | 212° |
| 2026-05-07 15:06 | 56.75815 | -2.97998 | 23122 ft | 265 kts | 216° |
| 2026-05-07 15:07 | 56.74345 | -3.00044 | 23541 ft | 267 kts | 216° |
| 2026-05-07 15:07 | 56.72789 | -3.01892 | 23894 ft | 268 kts | 213° |
| 2026-05-07 15:07 | 56.71264 | -3.03932 | 23934 ft | 273 kts | 219° |
| 2026-05-07 15:07 | 56.69761 | -3.06015 | 23936 ft | 270 kts | 212° |
| 2026-05-07 15:08 | 56.68189 | -3.07866 | 23940 ft | 269 kts | 215° |
| 2026-05-07 15:08 | 56.66696 | -3.09907 | 23927 ft | 269 kts | 217° |
| 2026-05-07 15:08 | 56.65168 | -3.11776 | 23934 ft | 269 kts | 212° |
| 2026-05-07 15:08 | 56.63638 | -3.13727 | 23931 ft | 269 kts | 219° |
| 2026-05-07 15:09 | 56.62166 | -3.15812 | 23931 ft | 269 kts | 213° |
| 2026-05-07 15:09 | 56.60598 | -3.17672 | 23938 ft | 273 kts | 214° |
| 2026-05-07 15:09 | 56.59007 | -3.19762 | 23966 ft | 291 kts | 216° |
| 2026-05-07 15:09 | 56.57287 | -3.21912 | 23971 ft | 310 kts | 212° |
| 2026-05-07 15:10 | 56.55436 | -3.24137 | 24005 ft | 328 kts | 215° |
| 2026-05-07 15:10 | 56.53530 | -3.26595 | 24050 ft | 345 kts | 217° |
| 2026-05-07 15:10 | 56.51624 | -3.29368 | 24086 ft | 356 kts | 217° |
| 2026-05-07 15:10 | 56.49631 | -3.31987 | 24121 ft | 353 kts | 215° |
| 2026-05-07 15:11 | 56.47630 | -3.34562 | 24128 ft | 353 kts | 215° |
| 2026-05-07 15:11 | 56.45633 | -3.37132 | 24130 ft | 352 kts | 215° |
| 2026-05-07 15:11 | 56.43635 | -3.39700 | 24124 ft | 352 kts | 215° |
| 2026-05-07 15:11 | 56.41600 | -3.42313 | 24130 ft | 367 kts | 215° |
| 2026-05-07 15:12 | 56.39471 | -3.45044 | 24157 ft | 384 kts | 215° |
| 2026-05-07 15:12 | 56.37262 | -3.47874 | 24205 ft | 392 kts | 215° |
| 2026-05-07 15:12 | 56.35041 | -3.50717 | 24236 ft | 390 kts | 215° |
| 2026-05-07 15:12 | 56.32828 | -3.53545 | 24242 ft | 390 kts | 215° |
| 2026-05-07 15:13 | 56.30619 | -3.56367 | 24240 ft | 389 kts | 215° |
| 2026-05-07 15:13 | 56.28409 | -3.59188 | 24238 ft | 389 kts | 215° |
| 2026-05-07 15:13 | 56.26192 | -3.61977 | 24236 ft | 389 kts | 214° |
| 2026-05-07 15:13 | 56.23950 | -3.64733 | 24221 ft | 391 kts | 214° |
| 2026-05-07 15:14 | 56.21704 | -3.67492 | 24225 ft | 391 kts | 214° |
| 2026-05-07 15:14 | 56.19458 | -3.70250 | 24227 ft | 391 kts | 214° |
| 2026-05-07 15:14 | 56.17215 | -3.73002 | 24230 ft | 391 kts | 214° |
| 2026-05-07 15:14 | 56.14966 | -3.75759 | 24227 ft | 391 kts | 214° |
| 2026-05-07 15:15 | 56.12721 | -3.78511 | 24227 ft | 391 kts | 214° |
| 2026-05-07 15:15 | 56.10476 | -3.81258 | 24226 ft | 391 kts | 214° |
| 2026-05-07 15:15 | 56.08232 | -3.84001 | 24226 ft | 391 kts | 214° |
| 2026-05-07 15:15 | 56.06425 | -3.86207 | 24227 ft | 391 kts | 214° |
| 2026-05-07 15:16 | 56.04179 | -3.88946 | 24220 ft | 391 kts | 214° |
| 2026-05-07 15:16 | 56.01932 | -3.91684 | 24227 ft | 391 kts | 214° |
| 2026-05-07 15:16 | 55.99683 | -3.94421 | 24227 ft | 391 kts | 214° |
| 2026-05-07 15:16 | 55.97437 | -3.97151 | 24242 ft | 390 kts | 214° |
| 2026-05-07 15:17 | 55.95200 | -3.99870 | 24239 ft | 389 kts | 214° |
| 2026-05-07 15:17 | 55.92966 | -4.02581 | 24240 ft | 389 kts | 214° |
| 2026-05-07 15:17 | 55.90728 | -4.05295 | 24240 ft | 389 kts | 214° |
| 2026-05-07 15:17 | 55.88489 | -4.08007 | 24238 ft | 389 kts | 214° |
| 2026-05-07 15:18 | 55.86250 | -4.10717 | 24241 ft | 389 kts | 214° |
| 2026-05-07 15:18 | 55.84011 | -4.13426 | 24240 ft | 389 kts | 214° |
| 2026-05-07 15:18 | 55.81769 | -4.16136 | 24242 ft | 389 kts | 214° |
| 2026-05-07 15:18 | 55.79581 | -4.18857 | 24241 ft | 390 kts | 214° |
| 2026-05-07 15:19 | 55.77368 | -4.21635 | 24247 ft | 389 kts | 214° |
| 2026-05-07 15:19 | 55.75145 | -4.24369 | 24245 ft | 389 kts | 214° |
| 2026-05-07 15:19 | 55.72925 | -4.27119 | 24243 ft | 389 kts | 213° |
| 2026-05-07 15:19 | 55.70475 | -4.29098 | 24207 ft | 390 kts | 193° |
| 2026-05-07 15:20 | 55.67757 | -4.29194 | 24208 ft | 397 kts | 171° |
| 2026-05-07 15:20 | 55.65167 | -4.27413 | 24235 ft | 405 kts | 154° |
| 2026-05-07 15:20 | 55.62910 | -4.24383 | 24271 ft | 411 kts | 141° |
| 2026-05-07 15:20 | 55.60744 | -4.21087 | 24303 ft | 410 kts | 146° |
| 2026-05-07 15:21 | 55.58488 | -4.18012 | 24317 ft | 409 kts | 147° |
| 2026-05-07 15:21 | 55.56953 | -4.15960 | 24322 ft | 409 kts | 147° |
| 2026-05-07 15:21 | 55.54669 | -4.12972 | 24324 ft | 409 kts | 148° |
| 2026-05-07 15:21 | 55.52366 | -4.10044 | 24323 ft | 408 kts | 148° |
| 2026-05-07 15:22 | 55.50070 | -4.07212 | 24327 ft | 407 kts | 150° |
| 2026-05-07 15:22 | 55.47684 | -4.04401 | 24328 ft | 407 kts | 150° |
| 2026-05-07 15:22 | 55.45273 | -4.01827 | 24312 ft | 405 kts | 155° |
| 2026-05-07 15:22 | 55.42831 | -3.99509 | 24313 ft | 405 kts | 155° |
| 2026-05-07 15:23 | 55.40350 | -3.97162 | 24330 ft | 405 kts | 155° |
| 2026-05-07 15:23 | 55.37869 | -3.94815 | 24330 ft | 405 kts | 155° |
| 2026-05-07 15:23 | 55.35385 | -3.92464 | 24329 ft | 405 kts | 155° |
| 2026-05-07 15:23 | 55.32921 | -3.90064 | 24329 ft | 405 kts | 154° |
| 2026-05-07 15:24 | 55.30459 | -3.87667 | 24338 ft | 405 kts | 155° |
| 2026-05-07 15:24 | 55.27981 | -3.85303 | 24319 ft | 408 kts | 154° |
| 2026-05-07 15:24 | 55.25490 | -3.82917 | 24322 ft | 407 kts | 154° |
| 2026-05-07 15:24 | 55.23006 | -3.80536 | 24323 ft | 407 kts | 154° |
| 2026-05-07 15:25 | 55.20520 | -3.78155 | 24316 ft | 407 kts | 154° |
| 2026-05-07 15:25 | 55.18038 | -3.75779 | 24316 ft | 407 kts | 154° |
| 2026-05-07 15:25 | 55.15549 | -3.73398 | 24316 ft | 407 kts | 154° |
| 2026-05-07 15:25 | 55.13067 | -3.71025 | 24324 ft | 407 kts | 154° |
| 2026-05-07 15:26 | 55.10581 | -3.68649 | 24325 ft | 407 kts | 154° |
| 2026-05-07 15:26 | 55.08102 | -3.66279 | 24325 ft | 407 kts | 154° |
| 2026-05-07 15:26 | 55.05620 | -3.63908 | 24324 ft | 407 kts | 154° |
| 2026-05-07 15:26 | 55.03140 | -3.61538 | 24324 ft | 407 kts | 154° |
| 2026-05-07 15:27 | 55.00657 | -3.59167 | 24324 ft | 407 kts | 154° |
| 2026-05-07 15:27 | 54.98176 | -3.56798 | 24327 ft | 407 kts | 154° |
| 2026-05-07 15:27 | 54.95694 | -3.54429 | 24327 ft | 407 kts | 154° |
| 2026-05-07 15:27 | 54.93213 | -3.52065 | 24320 ft | 407 kts | 154° |
| 2026-05-07 15:28 | 54.90728 | -3.49697 | 24318 ft | 407 kts | 154° |
| 2026-05-07 15:28 | 54.88243 | -3.47329 | 24323 ft | 407 kts | 154° |
| 2026-05-07 15:28 | 54.85757 | -3.44962 | 24323 ft | 407 kts | 154° |
| 2026-05-07 15:28 | 54.83274 | -3.42599 | 24324 ft | 407 kts | 154° |
| 2026-05-07 15:29 | 54.80796 | -3.40240 | 24324 ft | 407 kts | 154° |
| 2026-05-07 15:29 | 54.78310 | -3.37889 | 24324 ft | 407 kts | 154° |
| 2026-05-07 15:29 | 54.75826 | -3.35540 | 24324 ft | 407 kts | 154° |
| 2026-05-07 15:29 | 54.73322 | -3.33255 | 24320 ft | 405 kts | 158° |
| 2026-05-07 15:30 | 54.70656 | -3.31767 | 24305 ft | 402 kts | 169° |
| 2026-05-07 15:30 | 54.67887 | -3.31070 | 24304 ft | 402 kts | 179° |
| 2026-05-07 15:30 | 54.65089 | -3.31034 | 24315 ft | 402 kts | 179° |
| 2026-05-07 15:30 | 54.62294 | -3.30769 | 24325 ft | 402 kts | 178° |
| 2026-05-07 15:31 | 54.59502 | -3.30483 | 24333 ft | 402 kts | 178° |
| 2026-05-07 15:31 | 54.56709 | -3.30146 | 24336 ft | 403 kts | 176° |
| 2026-05-07 15:31 | 54.53912 | -3.29756 | 24334 ft | 403 kts | 176° |
| 2026-05-07 15:31 | 54.51123 | -3.29365 | 24338 ft | 403 kts | 176° |
| 2026-05-07 15:32 | 54.48335 | -3.28903 | 24338 ft | 403 kts | 175° |
| 2026-05-07 15:32 | 54.45548 | -3.28432 | 24339 ft | 403 kts | 176° |
| 2026-05-07 15:32 | 54.42750 | -3.27988 | 24331 ft | 405 kts | 175° |
| 2026-05-07 15:32 | 54.39944 | -3.27532 | 24337 ft | 405 kts | 176° |
| 2026-05-07 15:33 | 54.37158 | -3.27095 | 24334 ft | 404 kts | 175° |
| 2026-05-07 15:33 | 54.34356 | -3.26639 | 24334 ft | 404 kts | 176° |
| 2026-05-07 15:33 | 54.31550 | -3.26203 | 24334 ft | 404 kts | 175° |
| 2026-05-07 15:33 | 54.28750 | -3.25750 | 24335 ft | 404 kts | 175° |
| 2026-05-07 15:34 | 54.25948 | -3.25314 | 24336 ft | 404 kts | 176° |
| 2026-05-07 15:34 | 54.23150 | -3.24864 | 24335 ft | 404 kts | 175° |
| 2026-05-07 15:34 | 54.20351 | -3.24417 | 24335 ft | 404 kts | 176° |
| 2026-05-07 15:34 | 54.17539 | -3.23978 | 24331 ft | 407 kts | 176° |
| 2026-05-07 15:35 | 54.14724 | -3.23528 | 24332 ft | 407 kts | 176° |
| 2026-05-07 15:35 | 54.11909 | -3.23079 | 24333 ft | 406 kts | 176° |
| 2026-05-07 15:35 | 54.09093 | -3.22648 | 24337 ft | 406 kts | 176° |
| 2026-05-07 15:35 | 54.06275 | -3.22199 | 24336 ft | 406 kts | 176° |
| 2026-05-07 15:36 | 54.03462 | -3.21751 | 24337 ft | 406 kts | 176° |
| 2026-05-07 15:36 | 54.00655 | -3.21163 | 24331 ft | 407 kts | 170° |
| 2026-05-07 15:36 | 53.97911 | -3.19945 | 24330 ft | 408 kts | 163° |
| 2026-05-07 15:36 | 53.95264 | -3.18182 | 24322 ft | 410 kts | 156° |
| 2026-05-07 15:37 | 53.92674 | -3.16129 | 24324 ft | 411 kts | 159° |
| 2026-05-07 15:37 | 53.90029 | -3.14316 | 24316 ft | 410 kts | 161° |
| 2026-05-07 15:37 | 53.87354 | -3.12628 | 24317 ft | 410 kts | 161° |
| 2026-05-07 15:37 | 53.84678 | -3.10942 | 24317 ft | 410 kts | 161° |
| 2026-05-07 15:38 | 53.82004 | -3.09257 | 24316 ft | 410 kts | 161° |
| 2026-05-07 15:38 | 53.79337 | -3.07550 | 24317 ft | 410 kts | 160° |
| 2026-05-07 15:38 | 53.76715 | -3.05793 | 24317 ft | 411 kts | 160° |
| 2026-05-07 15:38 | 53.74020 | -3.04028 | 24316 ft | 410 kts | 160° |
| 2026-05-07 15:39 | 53.71354 | -3.02296 | 24320 ft | 410 kts | 160° |
| 2026-05-07 15:39 | 53.68685 | -3.00570 | 24312 ft | 412 kts | 161° |
| 2026-05-07 15:39 | 53.66000 | -2.98876 | 24314 ft | 412 kts | 161° |
| 2026-05-07 15:39 | 53.63351 | -2.97207 | 24315 ft | 412 kts | 161° |
| 2026-05-07 15:40 | 53.60670 | -2.95517 | 24315 ft | 412 kts | 161° |
| 2026-05-07 15:40 | 53.57986 | -2.93824 | 24315 ft | 412 kts | 161° |
| 2026-05-07 15:40 | 53.55304 | -2.92131 | 24315 ft | 412 kts | 161° |
| 2026-05-07 15:40 | 53.52622 | -2.90438 | 24316 ft | 412 kts | 161° |
| 2026-05-07 15:41 | 53.49947 | -2.88707 | 24321 ft | 412 kts | 160° |
| 2026-05-07 15:41 | 53.47276 | -2.86972 | 24323 ft | 412 kts | 160° |
| 2026-05-07 15:41 | 53.44605 | -2.85260 | 24326 ft | 412 kts | 160° |
| 2026-05-07 15:41 | 53.41918 | -2.83568 | 24341 ft | 412 kts | 161° |
| 2026-05-07 15:42 | 53.39223 | -2.81951 | 24336 ft | 412 kts | 162° |
| 2026-05-07 15:42 | 53.36524 | -2.80345 | 24331 ft | 412 kts | 161° |
| 2026-05-07 15:42 | 53.33835 | -2.78685 | 24331 ft | 412 kts | 161° |
| 2026-05-07 15:42 | 53.31151 | -2.77033 | 24328 ft | 411 kts | 161° |
| 2026-05-07 15:43 | 53.28466 | -2.75370 | 24328 ft | 412 kts | 160° |
| 2026-05-07 15:43 | 53.25812 | -2.73554 | 24327 ft | 412 kts | 156° |
| 2026-05-07 15:43 | 53.23195 | -2.71598 | 24326 ft | 412 kts | 160° |
| 2026-05-07 15:43 | 53.20492 | -2.70037 | 24322 ft | 411 kts | 163° |
| 2026-05-07 15:44 | 53.17783 | -2.68486 | 24325 ft | 411 kts | 162° |
| 2026-05-07 15:44 | 53.15076 | -2.66895 | 24325 ft | 413 kts | 162° |
| 2026-05-07 15:44 | 53.12383 | -2.65244 | 24303 ft | 412 kts | 161° |
| 2026-05-07 15:44 | 53.09694 | -2.63576 | 24185 ft | 412 kts | 161° |
| 2026-05-07 15:45 | 53.07002 | -2.61912 | 24081 ft | 413 kts | 161° |
| 2026-05-07 15:45 | 53.04315 | -2.60254 | 24025 ft | 411 kts | 161° |
| 2026-05-07 15:45 | 53.01637 | -2.58603 | 24025 ft | 410 kts | 161° |
| 2026-05-07 15:45 | 52.98955 | -2.56948 | 24025 ft | 412 kts | 161° |
| 2026-05-07 15:46 | 52.93597 | -2.53461 | 24021 ft | 415 kts | 160° |
| 2026-05-07 15:46 | 52.90896 | -2.51793 | 24013 ft | 413 kts | 161° |
| 2026-05-07 15:46 | 52.88191 | -2.50198 | 24013 ft | 413 kts | 161° |
| 2026-05-07 15:47 | 52.85494 | -2.48564 | 24017 ft | 413 kts | 161° |
| 2026-05-07 15:47 | 52.82803 | -2.46893 | 24015 ft | 414 kts | 159° |
| 2026-05-07 15:47 | 52.80232 | -2.44750 | 24003 ft | 416 kts | 147° |
| 2026-05-07 15:47 | 52.78063 | -2.41581 | 24026 ft | 418 kts | 137° |
| 2026-05-07 15:48 | 52.75843 | -2.38490 | 24035 ft | 417 kts | 146° |
| 2026-05-07 15:48 | 52.73365 | -2.36056 | 24033 ft | 416 kts | 152° |
| 2026-05-07 15:48 | 52.70864 | -2.33609 | 24033 ft | 418 kts | 150° |
| 2026-05-07 15:48 | 52.68392 | -2.31103 | 24032 ft | 417 kts | 150° |
| 2026-05-07 15:49 | 52.65937 | -2.28557 | 24030 ft | 417 kts | 149° |
| 2026-05-07 15:49 | 52.63492 | -2.25982 | 24031 ft | 417 kts | 149° |
| 2026-05-07 15:49 | 52.61059 | -2.23364 | 24028 ft | 418 kts | 148° |
| 2026-05-07 15:49 | 52.58643 | -2.20722 | 24027 ft | 417 kts | 148° |
| 2026-05-07 15:50 | 52.56203 | -2.18033 | 24040 ft | 418 kts | 148° |
| 2026-05-07 15:50 | 52.53822 | -2.15391 | 24035 ft | 418 kts | 147° |
| 2026-05-07 15:50 | 52.51415 | -2.12720 | 24039 ft | 418 kts | 148° |
| 2026-05-07 15:50 | 52.49000 | -2.10053 | 24025 ft | 419 kts | 148° |
| 2026-05-07 15:51 | 52.46560 | -2.07426 | 24027 ft | 420 kts | 149° |
| 2026-05-07 15:51 | 52.44124 | -2.04795 | 24028 ft | 419 kts | 148° |
| 2026-05-07 15:51 | 52.41685 | -2.02162 | 24028 ft | 419 kts | 149° |
| 2026-05-07 15:51 | 52.39250 | -1.99536 | 24031 ft | 419 kts | 149° |
| 2026-05-07 15:52 | 52.36815 | -1.96917 | 24036 ft | 419 kts | 149° |
| 2026-05-07 15:52 | 52.34380 | -1.94303 | 24039 ft | 419 kts | 149° |
| 2026-05-07 15:52 | 52.31946 | -1.91678 | 24035 ft | 419 kts | 148° |
| 2026-05-07 15:52 | 52.29520 | -1.89033 | 24036 ft | 419 kts | 148° |
| 2026-05-07 15:53 | 52.27106 | -1.86371 | 24025 ft | 419 kts | 148° |
| 2026-05-07 15:53 | 52.24704 | -1.83762 | 24027 ft | 422 kts | 149° |
| 2026-05-07 15:53 | 52.22257 | -1.81118 | 24026 ft | 421 kts | 149° |
| 2026-05-07 15:53 | 52.19815 | -1.78479 | 24027 ft | 421 kts | 149° |
| 2026-05-07 15:54 | 52.17356 | -1.75895 | 24052 ft | 421 kts | 150° |
| 2026-05-07 15:54 | 52.14861 | -1.73280 | 24057 ft | 421 kts | 149° |
| 2026-05-07 15:54 | 52.12411 | -1.70667 | 24056 ft | 421 kts | 149° |
| 2026-05-07 15:54 | 52.10015 | -1.68025 | 23899 ft | 423 kts | 145° |
| 2026-05-07 15:55 | 52.07778 | -1.64927 | 23611 ft | 421 kts | 143° |
| 2026-05-07 15:55 | 52.05400 | -1.62215 | 23269 ft | 415 kts | 153° |
| 2026-05-07 15:55 | 52.02899 | -1.59875 | 22913 ft | 414 kts | 152° |
| 2026-05-07 15:55 | 52.00437 | -1.57467 | 22586 ft | 412 kts | 151° |
| 2026-05-07 15:56 | 51.98002 | -1.55038 | 22260 ft | 410 kts | 150° |
| 2026-05-07 15:56 | 51.95590 | -1.52584 | 21938 ft | 408 kts | 150° |
| 2026-05-07 15:56 | 51.93198 | -1.50124 | 21619 ft | 406 kts | 150° |
| 2026-05-07 15:56 | 51.90817 | -1.47665 | 21301 ft | 405 kts | 149° |
| 2026-05-07 15:57 | 51.88466 | -1.45186 | 20982 ft | 403 kts | 149° |
| 2026-05-07 15:57 | 51.86125 | -1.42702 | 20677 ft | 401 kts | 149° |
| 2026-05-07 15:57 | 51.83799 | -1.40239 | 20368 ft | 399 kts | 149° |
| 2026-05-07 15:57 | 51.81482 | -1.37791 | 20065 ft | 397 kts | 149° |
| 2026-05-07 15:58 | 51.79175 | -1.35356 | 19761 ft | 396 kts | 149° |
| 2026-05-07 15:58 | 51.76876 | -1.32928 | 19464 ft | 394 kts | 149° |
| 2026-05-07 15:58 | 51.74588 | -1.30517 | 19172 ft | 392 kts | 149° |
| 2026-05-07 15:58 | 51.72311 | -1.28121 | 18884 ft | 390 kts | 149° |
| 2026-05-07 15:59 | 51.70044 | -1.25737 | 18603 ft | 388 kts | 149° |
| 2026-05-07 15:59 | 51.67782 | -1.23362 | 18308 ft | 387 kts | 149° |
| 2026-05-07 15:59 | 51.65534 | -1.21005 | 17981 ft | 384 kts | 149° |
| 2026-05-07 15:59 | 51.63300 | -1.18671 | 17648 ft | 382 kts | 149° |
| 2026-05-07 16:00 | 51.61075 | -1.16359 | 17334 ft | 379 kts | 149° |
| 2026-05-07 16:00 | 51.58863 | -1.14070 | 17014 ft | 377 kts | 149° |
| 2026-05-07 16:00 | 51.56664 | -1.11788 | 16694 ft | 375 kts | 149° |
| 2026-05-07 16:00 | 51.54477 | -1.09522 | 16386 ft | 373 kts | 149° |
| 2026-05-07 16:01 | 51.52300 | -1.07271 | 16077 ft | 371 kts | 149° |
| 2026-05-07 16:01 | 51.50131 | -1.05036 | 15773 ft | 369 kts | 149° |
| 2026-05-07 16:01 | 51.47977 | -1.02827 | 15461 ft | 367 kts | 149° |
| 2026-05-07 16:01 | 51.45830 | -1.00631 | 15174 ft | 365 kts | 149° |
| 2026-05-07 16:02 | 51.43695 | -0.98451 | 14882 ft | 363 kts | 149° |
| 2026-05-07 16:02 | 51.41570 | -0.96282 | 14759 ft | 362 kts | 149° |
| 2026-05-07 16:02 | 51.39464 | -0.94083 | 14637 ft | 362 kts | 148° |
| 2026-05-07 16:02 | 51.37362 | -0.91885 | 14524 ft | 360 kts | 148° |
| 2026-05-07 16:03 | 51.35285 | -0.89731 | 14400 ft | 359 kts | 149° |
| 2026-05-07 16:03 | 51.33144 | -0.87581 | 14281 ft | 359 kts | 149° |
| 2026-05-07 16:03 | 51.31054 | -0.85475 | 14163 ft | 359 kts | 149° |
| 2026-05-07 16:03 | 51.28933 | -0.83277 | 14053 ft | 358 kts | 148° |
| 2026-05-07 16:04 | 51.27551 | -0.81837 | 14053 ft | 358 kts | 148° |
| 2026-05-07 16:04 | 51.25456 | -0.79690 | 14054 ft | 358 kts | 149° |
| 2026-05-07 16:04 | 51.23341 | -0.77576 | 14001 ft | 360 kts | 149° |
| 2026-05-07 16:04 | 51.21231 | -0.75461 | 13801 ft | 357 kts | 149° |
| 2026-05-07 16:05 | 51.19146 | -0.73312 | 13589 ft | 356 kts | 148° |
| 2026-05-07 16:05 | 51.17073 | -0.71166 | 13366 ft | 355 kts | 148° |
| 2026-05-07 16:05 | 51.14991 | -0.69065 | 13154 ft | 353 kts | 149° |
| 2026-05-07 16:05 | 51.12242 | -0.66326 | 12873 ft | 352 kts | 149° |
| 2026-05-07 16:06 | 51.10838 | -0.64929 | 12732 ft | 351 kts | 149° |
| 2026-05-07 16:06 | 51.08781 | -0.62837 | 12521 ft | 351 kts | 148° |
| 2026-05-07 16:06 | 51.06748 | -0.60707 | 12312 ft | 350 kts | 146° |
| 2026-05-07 16:06 | 51.05209 | -0.58405 | 12114 ft | 351 kts | 130° |
| 2026-05-07 16:07 | 51.03875 | -0.55149 | 11916 ft | 352 kts | 120° |
| 2026-05-07 16:07 | 51.02868 | -0.51682 | 11674 ft | 353 kts | 113° |
| 2026-05-07 16:07 | 51.01945 | -0.48060 | 11319 ft | 351 kts | 115° |
| 2026-05-07 16:07 | 51.01017 | -0.44602 | 10833 ft | 327 kts | 116° |
| 2026-05-07 16:08 | 51.00142 | -0.41423 | 10336 ft | 303 kts | 117° |
| 2026-05-07 16:08 | 50.99225 | -0.38531 | 9811 ft | 285 kts | 119° |
| 2026-05-07 16:08 | 50.98344 | -0.35790 | 9260 ft | 273 kts | 119° |
| 2026-05-07 16:08 | 50.97493 | -0.33166 | 8725 ft | 263 kts | 119° |
| 2026-05-07 16:09 | 50.96675 | -0.30631 | 8207 ft | 255 kts | 118° |
| 2026-05-07 16:09 | 50.95880 | -0.28152 | 7693 ft | 250 kts | 118° |
| 2026-05-07 16:09 | 50.95080 | -0.25723 | 7193 ft | 247 kts | 118° |
| 2026-05-07 16:09 | 50.94306 | -0.23305 | 6717 ft | 245 kts | 109° |
| 2026-05-07 16:10 | 50.94203 | -0.20664 | 6197 ft | 242 kts | 73° |
| 2026-05-07 16:10 | 50.94342 | -0.20026 | 6083 ft | 241 kts | 63° |
| 2026-05-07 16:10 | 50.95262 | -0.18194 | 6171 ft | 236 kts | 43° |
| 2026-05-07 16:10 | 50.96706 | -0.17000 | 6088 ft | 237 kts | 8° |
| 2026-05-07 16:11 | 50.98331 | -0.17282 | 5964 ft | 237 kts | 341° |
| 2026-05-07 16:11 | 50.99673 | -0.18755 | 5788 ft | 239 kts | 306° |
| 2026-05-07 16:11 | 51.00322 | -0.21188 | 5674 ft | 241 kts | 284° |
| 2026-05-07 16:11 | 51.00659 | -0.23812 | 5424 ft | 246 kts | 281° |
| 2026-05-07 16:12 | 51.00991 | -0.26487 | 5074 ft | 247 kts | 281° |
| 2026-05-07 16:12 | 51.01326 | -0.29169 | 4708 ft | 249 kts | 281° |
| 2026-05-07 16:12 | 51.01664 | -0.31874 | 4326 ft | 250 kts | 281° |
| 2026-05-07 16:12 | 51.02010 | -0.34589 | 3945 ft | 251 kts | 281° |
| 2026-05-07 16:13 | 51.02360 | -0.37309 | 3571 ft | 252 kts | 281° |
| 2026-05-07 16:13 | 51.02800 | -0.39999 | 3199 ft | 252 kts | 288° |
| 2026-05-07 16:13 | 51.03409 | -0.42619 | 2998 ft | 250 kts | 293° |
| 2026-05-07 16:13 | 51.04258 | -0.44960 | 2996 ft | 238 kts | 302° |
| 2026-05-07 16:14 | 51.05209 | -0.46955 | 2973 ft | 215 kts | 312° |
| 2026-05-07 16:14 | 51.06152 | -0.48606 | 2976 ft | 188 kts | 311° |
| 2026-05-07 16:14 | 51.06997 | -0.49982 | 2943 ft | 162 kts | 321° |
| 2026-05-07 16:14 | 51.08053 | -0.50398 | 2441 ft | 164 kts | 17° |
| 2026-05-07 16:15 | 51.08916 | -0.49432 | 2285 ft | 149 kts | 55° |
| 2026-05-07 16:15 | 51.09525 | -0.48163 | 2373 ft | 149 kts | 55° |
| 2026-05-07 16:15 | 51.10244 | -0.47036 | 2518 ft | 147 kts | 44° |
| 2026-05-07 16:15 | 51.10923 | -0.45828 | 2666 ft | 146 kts | 57° |
| 2026-05-07 16:16 | 51.11388 | -0.44414 | 2790 ft | 144 kts | 78° |
| 2026-05-07 16:16 | 51.11558 | -0.42860 | 2927 ft | 143 kts | 82° |
| 2026-05-07 16:16 | 51.11771 | -0.41299 | 2862 ft | 147 kts | 78° |
| 2026-05-07 16:16 | 51.11994 | -0.39751 | 2645 ft | 143 kts | 81° |
| 2026-05-07 16:17 | 51.12208 | -0.38191 | 2461 ft | 145 kts | 81° |
| 2026-05-07 16:17 | 51.12431 | -0.36574 | 2260 ft | 144 kts | 81° |
| 2026-05-07 16:17 | 51.12636 | -0.35058 | 2057 ft | 143 kts | 81° |
| 2026-05-07 16:17 | 51.12850 | -0.33501 | 1869 ft | 145 kts | 81° |
| 2026-05-07 16:18 | 51.13068 | -0.31932 | 1675 ft | 144 kts | 81° |
| 2026-05-07 16:18 | 51.13281 | -0.30374 | 1478 ft | 144 kts | 82° |
| 2026-05-07 16:18 | 51.13494 | -0.28816 | 1238 ft | 144 kts | 84° |
| 2026-05-07 16:18 | 51.13685 | -0.27295 | 1024 ft | 137 kts | 81° |
| 2026-05-07 16:19 | 51.13884 | -0.25836 | 880 ft | 133 kts | 81° |
| 2026-05-07 16:19 | 51.14074 | -0.24406 | 698 ft | 130 kts | 80° |
| 2026-05-07 16:19 | 51.14264 | -0.23020 | 526 ft | 127 kts | 81° |
| 2026-05-07 16:19 | 51.14454 | -0.21676 | 336 ft | 124 kts | 82° |
| 2026-05-07 16:20 | 51.14631 | -0.20359 | 213 ft | 116 kts | 81° |
| 2026-05-07 16:20 | 51.14779 | -0.19273 | 208 ft | 80 kts | 78° |
| 2026-05-07 16:20 | 51.14894 | -0.18622 | 210 ft | 40 kts | 63° |
| 2026-05-07 16:20 | 51.15031 | -0.18340 | 215 ft | 21 kts | 54° |
| 2026-05-07 16:21 | 51.15113 | -0.18199 | 212 ft | 14 kts | 20° |
| 2026-05-07 16:21 | 51.15193 | -0.18176 | 211 ft | 11 kts | 42° |
| 2026-05-07 16:21 | 51.15215 | -0.18069 | 207 ft | 12 kts | 75° |
| 2026-05-07 16:21 | 51.15235 | -0.17930 | 212 ft | 13 kts | 79° |
| 2026-05-07 16:22 | 51.15256 | -0.17772 | 207 ft | 16 kts | 77° |
| 2026-05-07 16:22 | 51.15282 | -0.17584 | 207 ft | 18 kts | 78° |
| 2026-05-07 16:22 | 51.15294 | -0.17502 | 212 ft | 3 kts | 64° |
| 2026-05-07 16:22 | 51.15305 | -0.17486 | 217 ft | 4 kts | 27° |
| 2026-05-07 16:23 | 51.15341 | -0.17484 | 209 ft | 6 kts | 352° |
| 2026-05-07 16:23 | 51.15366 | -0.17491 | 210 ft | 0 kts | 348° |
| 2026-05-07 16:23 | 51.15363 | -0.17490 | 210 ft | 0 kts | 348° |